Time;durP1;ratioP1;P1;durP2;ratioP2;P2;SDS_P1;SDS_P2;PMS_P1;PMS_P2;Temp;Humidity;BMP_temperature;BMP_pressure;BME280_temperature;BME280_humidity;BME280_pressure;Samples;Min_cycle;Max_cycle;Signal;HPM_P1;HPM_P2
2023/06/15 00:00:21;;;;;;;0.00;0.00;;;18.60;99.90;;;;;;5095075;28;20180;-71
2023/06/15 00:02:47;;;;;;;0.00;0.00;;;18.50;99.90;;;;;;5094823;28;20229;-70
2023/06/15 00:05:12;;;;;;;0.00;0.00;;;18.50;99.90;;;;;;5095073;28;20180;-71
2023/06/15 00:07:38;;;;;;;0.00;0.00;;;18.50;99.90;;;;;;5095243;28;20326;-71
2023/06/15 00:10:04;;;;;;;0.00;0.00;;;18.50;99.90;;;;;;5095189;28;20170;-70
2023/06/15 00:12:30;;;;;;;0.00;0.00;;;18.40;99.90;;;;;;5094792;28;20171;-71
2023/06/15 00:14:56;;;;;;;0.00;0.00;;;18.30;99.90;;;;;;5094446;28;20177;-71
2023/06/15 00:17:21;;;;;;;0.00;0.00;;;18.40;99.90;;;;;;5094455;28;20201;-71
2023/06/15 00:19:47;;;;;;;0.00;0.00;;;18.30;99.90;;;;;;5094048;28;20224;-70
2023/06/15 00:22:15;;;;;;;0.00;0.00;;;18.40;99.90;;;;;;5094702;28;20174;-71
2023/06/15 00:24:45;;;;;;;0.00;0.00;;;18.40;99.90;;;;;;5094414;28;20178;-71
2023/06/15 00:27:11;;;;;;;0.83;0.83;;;18.40;99.90;;;;;;5093202;28;20235;-71
2023/06/15 00:29:37;;;;;;;0.00;0.00;;;18.40;99.90;;;;;;5094414;28;20180;-70
2023/06/15 00:32:06;;;;;;;0.00;0.00;;;18.40;99.90;;;;;;5094286;28;20258;-72
2023/06/15 00:34:31;;;;;;;0.00;0.00;;;18.40;99.90;;;;;;5094269;28;20688;-71
2023/06/15 00:36:57;;;;;;;0.00;0.00;;;18.30;99.90;;;;;;5094088;28;20195;-71
2023/06/15 00:39:22;;;;;;;0.00;0.00;;;18.30;99.90;;;;;;5092909;28;20174;-71
2023/06/15 00:41:48;;;;;;;0.00;0.00;;;18.20;99.90;;;;;;5094211;28;20176;-71
2023/06/15 00:44:14;;;;;;;0.00;0.00;;;18.20;99.90;;;;;;5094021;28;20691;-71
2023/06/15 00:46:39;;;;;;;0.00;0.00;;;18.20;99.90;;;;;;5093828;28;20265;-72
2023/06/15 00:49:06;;;;;;;0.20;0.20;;;18.20;99.90;;;;;;5093714;28;20255;-71
2023/06/15 00:51:34;;;;;;;0.00;0.00;;;18.10;99.90;;;;;;5093844;28;20650;-71
2023/06/15 00:54:00;;;;;;;0.00;0.00;;;18.10;99.90;;;;;;5093178;28;20176;-71
2023/06/15 00:56:29;;;;;;;0.00;0.00;;;18.00;99.90;;;;;;5093498;28;20199;-72
2023/06/15 00:58:58;;;;;;;0.00;0.00;;;18.00;99.90;;;;;;5094065;28;20190;-70
2023/06/15 01:01:24;;;;;;;0.00;0.00;;;18.00;99.90;;;;;;5093909;28;20187;-72
2023/06/15 01:03:50;;;;;;;0.10;0.10;;;18.00;99.90;;;;;;5094189;28;20711;-71
2023/06/15 01:06:19;;;;;;;0.00;0.00;;;17.90;99.90;;;;;;5094051;28;20558;-71
2023/06/15 01:08:47;;;;;;;0.00;0.00;;;17.80;99.90;;;;;;5094061;28;20249;-71
2023/06/15 01:11:14;;;;;;;0.00;0.00;;;17.80;99.90;;;;;;5093792;28;20178;-71
2023/06/15 01:13:43;;;;;;;1.00;1.00;;;17.80;99.90;;;;;;5093484;28;20182;-71
2023/06/15 01:16:14;;;;;;;0.00;0.00;;;17.80;99.90;;;;;;5093038;28;20199;-71
2023/06/15 01:18:46;;;;;;;0.00;0.00;;;17.70;99.90;;;;;;5093961;28;20232;-71
2023/06/15 01:21:13;;;;;;;0.00;0.00;;;17.60;99.90;;;;;;5093751;28;20183;-71
2023/06/15 01:24:08;;;;;;;0.00;0.00;;;17.50;99.90;;;;;;5093492;28;20175;-71
2023/06/15 01:26:38;;;;;;;0.00;0.00;;;17.40;99.90;;;;;;5078036;28;20569;-71
2023/06/15 01:29:04;;;;;;;0.00;0.00;;;17.20;99.90;;;;;;5093046;28;20199;-72
2023/06/15 01:31:31;;;;;;;0.00;0.00;;;17.20;99.90;;;;;;5093180;28;20274;-71
2023/06/15 01:33:57;;;;;;;0.00;0.00;;;17.20;99.90;;;;;;5092751;28;20686;-71
2023/06/15 01:36:23;;;;;;;0.00;0.00;;;17.20;99.90;;;;;;5093568;28;20285;-71
2023/06/15 01:38:52;;;;;;;0.00;0.00;;;17.20;99.90;;;;;;5092929;28;20299;-72
2023/06/15 01:41:19;;;;;;;0.00;0.00;;;17.10;99.90;;;;;;5093365;28;20181;-71
2023/06/15 01:43:45;;;;;;;0.00;0.00;;;17.10;99.90;;;;;;5093217;28;20256;-72
2023/06/15 01:46:11;;;;;;;0.00;0.00;;;17.00;99.90;;;;;;5092969;28;20284;-70
2023/06/15 01:48:37;;;;;;;0.00;0.00;;;16.90;99.90;;;;;;5092730;28;20196;-72
2023/06/15 01:51:03;;;;;;;0.03;0.03;;;16.80;99.90;;;;;;5092637;28;20548;-72
2023/06/15 01:53:30;;;;;;;0.00;0.00;;;16.70;99.90;;;;;;5092887;28;20173;-71
2023/06/15 01:55:57;;;;;;;0.00;0.00;;;16.60;99.90;;;;;;5092382;28;20212;-71
2023/06/15 01:58:23;;;;;;;0.20;0.20;;;16.50;99.90;;;;;;5092712;28;20257;-71
2023/06/15 02:00:48;;;;;;;0.00;0.00;;;16.50;99.90;;;;;;5092906;28;20642;-72
2023/06/15 02:03:14;;;;;;;0.00;0.00;;;16.50;99.90;;;;;;5093074;28;20177;-71
2023/06/15 02:05:40;;;;;;;0.20;0.20;;;16.10;99.90;;;;;;5093043;28;20336;-71
2023/06/15 02:08:07;;;;;;;0.00;0.00;;;16.20;99.90;;;;;;5079467;28;20193;-71
2023/06/15 02:10:32;;;;;;;0.00;0.00;;;16.30;99.90;;;;;;5092761;28;20268;-70
2023/06/15 02:12:58;;;;;;;0.00;0.00;;;16.40;99.90;;;;;;5092645;28;20197;-71
2023/06/15 02:15:23;;;;;;;0.00;0.00;;;16.50;99.90;;;;;;5092413;28;20184;-71
2023/06/15 02:18:01;;;;;;;0.00;0.00;;;16.50;99.90;;;;;;5092682;28;20189;-71
2023/06/15 02:20:27;;;;;;;0.00;0.00;;;16.50;99.90;;;;;;5092513;28;20180;-70
2023/06/15 02:22:54;;;;;;;0.00;0.00;;;16.50;99.90;;;;;;5092624;28;20197;-71
2023/06/15 02:25:20;;;;;;;0.10;0.10;;;16.50;99.90;;;;;;5092521;28;20233;-72
2023/06/15 02:27:45;;;;;;;0.00;0.00;;;16.20;99.90;;;;;;5092719;28;20291;-72
2023/06/15 02:30:12;;;;;;;0.00;0.00;;;16.10;99.90;;;;;;5092693;28;20589;-71
2023/06/15 02:32:39;;;;;;;0.00;0.00;;;16.20;99.90;;;;;;5092510;28;20180;-72
2023/06/15 02:35:08;;;;;;;0.00;0.00;;;16.20;99.90;;;;;;5091948;28;20243;-70
2023/06/15 02:37:34;;;;;;;0.00;0.00;;;16.20;99.90;;;;;;5092775;28;20667;-71
2023/06/15 02:39:59;;;;;;;0.00;0.00;;;16.30;99.90;;;;;;5092016;28;20172;-71
2023/06/15 02:42:25;;;;;;;0.00;0.00;;;16.20;99.90;;;;;;5092215;28;20173;-71
2023/06/15 02:44:50;;;;;;;0.00;0.00;;;16.40;99.90;;;;;;5092067;28;20188;-71
2023/06/15 02:47:16;;;;;;;0.00;0.00;;;16.30;99.90;;;;;;5092282;28;20561;-71
2023/06/15 02:49:42;;;;;;;0.00;0.00;;;16.40;99.90;;;;;;5092059;28;20176;-72
2023/06/15 02:52:07;;;;;;;0.13;0.13;;;16.20;99.90;;;;;;5092306;28;20619;-70
2023/06/15 02:54:34;;;;;;;0.00;0.00;;;16.10;99.90;;;;;;5092160;28;20613;-71
2023/06/15 02:56:59;;;;;;;0.20;0.20;;;16.10;99.90;;;;;;5092187;28;20279;-71
2023/06/15 02:59:25;;;;;;;0.13;0.13;;;16.10;99.90;;;;;;5092355;28;20269;-69
2023/06/15 03:01:52;;;;;;;0.27;0.27;;;16.10;99.90;;;;;;5090441;28;20201;-71
2023/06/15 03:04:21;;;;;;;0.00;0.00;;;16.20;99.90;;;;;;5091881;28;20260;-71
2023/06/15 03:06:50;;;;;;;0.00;0.00;;;16.20;99.90;;;;;;5091677;28;20185;-71
2023/06/15 03:09:17;;;;;;;0.00;0.00;;;16.30;99.90;;;;;;5091059;28;20213;-72
2023/06/15 03:11:43;;;;;;;0.00;0.00;;;16.30;99.90;;;;;;5091762;28;20169;-71
2023/06/15 03:14:10;;;;;;;0.00;0.00;;;16.20;99.90;;;;;;5091122;28;20532;-71
2023/06/15 03:16:39;;;;;;;0.00;0.00;;;16.20;99.90;;;;;;5079155;28;20244;-71
2023/06/15 03:19:05;;;;;;;0.10;0.10;;;16.30;99.90;;;;;;5091868;28;20318;-71
2023/06/15 03:21:31;;;;;;;0.00;0.00;;;16.20;99.90;;;;;;5091627;28;20286;-71
2023/06/15 03:23:57;;;;;;;0.00;0.00;;;16.30;99.90;;;;;;5090783;28;20177;-71
2023/06/15 03:26:26;;;;;;;0.10;0.10;;;16.20;99.90;;;;;;5091767;28;20330;-71
2023/06/15 03:28:52;;;;;;;0.43;0.43;;;16.30;99.90;;;;;;5091563;28;20570;-71
2023/06/15 03:31:18;;;;;;;0.00;0.00;;;16.20;99.90;;;;;;5091848;28;20188;-71
2023/06/15 03:33:45;;;;;;;0.00;0.00;;;16.20;99.90;;;;;;5091742;28;20223;-72
2023/06/15 03:36:13;;;;;;;0.00;0.00;;;16.10;99.90;;;;;;5091507;28;20669;-70
2023/06/15 03:38:40;;;;;;;0.00;0.00;;;16.10;99.90;;;;;;5091973;28;20626;-70
2023/06/15 03:41:06;;;;;;;0.00;0.00;;;16.00;99.90;;;;;;5091608;28;20185;-72
2023/06/15 03:43:31;;;;;;;0.00;0.00;;;16.00;99.90;;;;;;5091276;28;20231;-71
2023/06/15 03:45:57;;;;;;;0.40;0.37;;;16.00;99.90;;;;;;5089939;28;20203;-71
2023/06/15 03:48:22;;;;;;;0.13;0.13;;;16.00;99.90;;;;;;5092256;28;20211;-71
2023/06/15 03:50:48;;;;;;;0.00;0.00;;;15.90;99.90;;;;;;5091491;28;20264;-71
2023/06/15 03:53:13;;;;;;;0.10;0.10;;;15.90;99.90;;;;;;5091780;28;20307;-70
2023/06/15 03:55:39;;;;;;;1.93;0.43;;;15.70;99.90;;;;;;5093037;28;20538;-71
2023/06/15 03:58:04;;;;;;;0.00;0.00;;;15.90;99.90;;;;;;5095871;28;20173;-71
2023/06/15 04:00:30;;;;;;;0.00;0.00;;;16.00;99.90;;;;;;5095176;28;20173;-70
2023/06/15 04:02:56;;;;;;;2.17;0.47;;;15.90;99.90;;;;;;5095378;28;20177;-71
2023/06/15 04:05:22;;;;;;;0.00;0.00;;;15.90;99.90;;;;;;5095426;28;20169;-69
2023/06/15 04:07:48;;;;;;;0.00;0.00;;;15.90;99.90;;;;;;5094025;28;20276;-70
2023/06/15 04:10:13;;;;;;;0.00;0.00;;;15.90;99.90;;;;;;5094946;28;20616;-71
2023/06/15 04:12:39;;;;;;;0.00;0.00;;;15.90;99.90;;;;;;5095139;28;20196;-70
2023/06/15 04:15:05;;;;;;;0.00;0.00;;;16.00;99.90;;;;;;5094616;28;20561;-71
2023/06/15 04:17:31;;;;;;;0.20;0.20;;;16.00;99.90;;;;;;5095457;28;20188;-70
2023/06/15 04:19:57;;;;;;;0.00;0.00;;;16.00;99.90;;;;;;5094984;28;20166;-70
2023/06/15 04:22:22;;;;;;;0.00;0.00;;;16.10;99.90;;;;;;5095565;28;20205;-70
2023/06/15 04:24:48;;;;;;;0.03;0.03;;;15.90;99.90;;;;;;5094856;28;20538;-71
2023/06/15 04:27:18;;;;;;;0.00;0.00;;;16.00;99.90;;;;;;5094737;28;20196;-70
2023/06/15 04:29:45;;;;;;;0.77;0.77;;;16.00;99.90;;;;;;5094737;28;20251;-70
2023/06/15 04:32:14;;;;;;;0.33;0.33;;;16.00;99.90;;;;;;5094506;28;20564;-70
2023/06/15 04:34:45;;;;;;;0.00;0.00;;;16.10;99.90;;;;;;5094251;28;20202;-71
2023/06/15 04:37:11;;;;;;;0.00;0.00;;;16.10;99.90;;;;;;5092539;28;20201;-70
2023/06/15 04:39:37;;;;;;;0.00;0.00;;;16.20;99.90;;;;;;5094319;28;20196;-71
2023/06/15 04:42:03;;;;;;;0.00;0.00;;;16.20;99.90;;;;;;5093660;28;20302;-71
2023/06/15 04:44:29;;;;;;;0.27;0.27;;;16.20;99.90;;;;;;5094312;28;20177;-70
2023/06/15 04:46:55;;;;;;;0.00;0.00;;;16.30;99.90;;;;;;5092794;28;20193;-71
2023/06/15 04:49:20;;;;;;;0.00;0.00;;;16.40;99.90;;;;;;5093995;28;20193;-71
2023/06/15 04:51:48;;;;;;;0.00;0.00;;;16.60;99.90;;;;;;5093772;28;20197;-71
2023/06/15 04:54:14;;;;;;;0.00;0.00;;;17.60;99.90;;;;;;5094125;28;20171;-71
2023/06/15 04:56:39;;;;;;;0.00;0.00;;;18.10;99.90;;;;;;5094065;28;20190;-71
2023/06/15 04:59:05;;;;;;;1.83;1.13;;;19.10;99.90;;;;;;5094510;28;20660;-71
2023/06/15 05:01:30;;;;;;;0.00;0.00;;;19.60;99.90;;;;;;5094151;28;20595;-71
2023/06/15 05:03:58;;;;;;;0.10;0.10;;;19.80;99.90;;;;;;5094060;28;20172;-71
2023/06/15 05:06:24;;;;;;;0.08;0.08;;;19.70;99.90;;;;;;5094548;28;20189;-71
2023/06/15 05:08:50;;;;;;;0.00;0.00;;;20.00;99.90;;;;;;5094496;28;20207;-71
2023/06/15 05:11:15;;;;;;;0.22;0.10;;;20.50;99.90;;;;;;5094095;28;20166;-71
2023/06/15 05:13:42;;;;;;;0.08;0.08;;;20.40;99.90;;;;;;5094082;28;20173;-71
2023/06/15 05:16:07;;;;;;;0.00;0.00;;;19.40;99.90;;;;;;5093829;28;20272;-71
2023/06/15 05:18:33;;;;;;;0.00;0.00;;;18.40;99.90;;;;;;5093419;28;20257;-70
2023/06/15 05:20:59;;;;;;;0.00;0.00;;;18.10;99.90;;;;;;5094041;28;20263;-69
2023/06/15 05:23:24;;;;;;;0.00;0.00;;;18.10;99.90;;;;;;5093476;28;20188;-71
2023/06/15 05:25:51;;;;;;;0.00;0.00;;;18.20;99.90;;;;;;5092820;28;20683;-70
2023/06/15 05:28:18;;;;;;;0.00;0.00;;;18.50;99.90;;;;;;5093658;28;20211;-71
2023/06/15 05:30:44;;;;;;;0.03;0.03;;;18.80;99.90;;;;;;5092836;28;20263;-71
2023/06/15 05:33:10;;;;;;;0.00;0.00;;;18.60;99.90;;;;;;5093301;28;20628;-70
2023/06/15 05:35:36;;;;;;;1.10;1.03;;;18.40;99.90;;;;;;5093133;28;20180;-70
2023/06/15 05:38:01;;;;;;;0.00;0.00;;;18.40;99.90;;;;;;5092984;28;20257;-69
2023/06/15 05:40:27;;;;;;;0.77;0.77;;;18.30;99.90;;;;;;5092988;28;20209;-70
2023/06/15 05:42:54;;;;;;;2.43;1.10;;;18.10;99.90;;;;;;5092842;28;20627;-71
2023/06/15 05:45:19;;;;;;;1.90;1.10;;;18.20;99.90;;;;;;5092894;28;20193;-71
2023/06/15 05:47:45;;;;;;;0.00;0.00;;;18.20;99.90;;;;;;5092887;28;20671;-70
2023/06/15 05:50:11;;;;;;;0.00;0.00;;;18.20;99.90;;;;;;5092654;28;20239;-71
2023/06/15 05:52:36;;;;;;;0.00;0.00;;;18.30;99.90;;;;;;5092863;28;20179;-71
2023/06/15 05:55:02;;;;;;;0.03;0.03;;;18.50;99.90;;;;;;5089247;28;20180;-72
2023/06/15 05:57:27;;;;;;;0.03;0.03;;;18.60;99.90;;;;;;5082481;28;20196;-71
2023/06/15 05:59:53;;;;;;;1.53;1.40;;;18.60;99.90;;;;;;5092357;28;20172;-70
2023/06/15 06:02:18;;;;;;;0.00;0.00;;;18.70;99.90;;;;;;5089831;28;20229;-71
2023/06/15 06:04:44;;;;;;;0.00;0.00;;;18.70;99.90;;;;;;5091263;28;20586;-71
2023/06/15 06:07:10;;;;;;;0.00;0.00;;;18.60;99.90;;;;;;5091835;28;20667;-71
2023/06/15 06:09:39;;;;;;;0.00;0.00;;;18.60;99.90;;;;;;5091850;28;20289;-71
2023/06/15 06:12:06;;;;;;;0.00;0.00;;;18.70;99.90;;;;;;5091924;28;20564;-70
2023/06/15 06:14:31;;;;;;;0.00;0.00;;;18.80;99.90;;;;;;5090960;28;20196;-72
2023/06/15 06:16:57;;;;;;;0.93;0.20;;;19.00;99.90;;;;;;5088545;28;20195;-72
2023/06/15 06:19:23;;;;;;;0.00;0.00;;;18.90;99.90;;;;;;5090800;28;20180;-72
2023/06/15 06:21:49;;;;;;;0.00;0.00;;;19.10;99.90;;;;;;5083108;28;20235;-71
2023/06/15 06:24:15;;;;;;;0.00;0.00;;;19.20;99.90;;;;;;5092431;28;20630;-71
2023/06/15 06:26:43;;;;;;;0.00;0.00;;;19.10;99.90;;;;;;5091139;28;20192;-71
2023/06/15 06:29:09;;;;;;;0.00;0.00;;;19.20;99.90;;;;;;5085580;28;20206;-70
2023/06/15 06:31:35;;;;;;;0.00;0.00;;;19.20;99.90;;;;;;5090824;28;20258;-72
2023/06/15 06:34:01;;;;;;;0.17;0.17;;;19.20;99.90;;;;;;5094625;28;20704;-71
2023/06/15 06:36:26;;;;;;;0.27;0.27;;;19.30;99.90;;;;;;5098541;28;20208;-71
2023/06/15 06:38:52;;;;;;;0.00;0.00;;;19.20;99.90;;;;;;5089827;28;20173;-72
2023/06/15 06:41:18;;;;;;;0.10;0.10;;;19.50;99.90;;;;;;5072108;28;20170;-71
2023/06/15 06:43:43;;;;;;;0.00;0.00;;;19.40;99.90;;;;;;5090360;28;20183;-69
2023/06/15 06:46:09;;;;;;;0.00;0.00;;;19.30;99.90;;;;;;5091885;28;20568;-69
2023/06/15 06:48:35;;;;;;;0.20;0.20;;;19.50;99.90;;;;;;5091927;28;20552;-71
2023/06/15 06:51:00;;;;;;;0.00;0.00;;;19.50;99.90;;;;;;5091639;28;20527;-71
2023/06/15 06:53:26;;;;;;;0.37;0.37;;;19.70;99.90;;;;;;5091699;28;20150;-71
2023/06/15 06:55:52;;;;;;;0.00;0.00;;;19.80;99.90;;;;;;5094673;28;20196;-69
2023/06/15 06:58:19;;;;;;;0.00;0.00;;;19.80;99.90;;;;;;5090949;28;20675;-71
2023/06/15 07:00:45;;;;;;;0.00;0.00;;;19.90;99.90;;;;;;5091846;28;20165;-70
2023/06/15 07:03:10;;;;;;;0.63;0.63;;;20.00;99.90;;;;;;5091634;28;20161;-71
2023/06/15 07:05:36;;;;;;;0.00;0.00;;;20.30;99.90;;;;;;5090781;28;20165;-71
2023/06/15 07:08:01;;;;;;;0.90;0.90;;;20.20;99.90;;;;;;5092146;28;20181;-70
2023/06/15 07:10:27;;;;;;;0.00;0.00;;;20.20;99.90;;;;;;5109303;28;20167;-70
2023/06/15 07:12:55;;;;;;;0.10;0.10;;;20.40;99.90;;;;;;5112440;28;20168;-70
2023/06/15 07:15:22;;;;;;;0.00;0.00;;;20.60;99.90;;;;;;5093062;28;20165;-69
2023/06/15 07:17:48;;;;;;;0.00;0.00;;;20.80;99.90;;;;;;5111629;28;20173;-70
2023/06/15 07:20:13;;;;;;;0.00;0.00;;;20.80;99.90;;;;;;5095901;28;20478;-71
2023/06/15 07:22:39;;;;;;;0.00;0.00;;;20.80;99.90;;;;;;5083211;28;20207;-71
2023/06/15 07:25:05;;;;;;;0.00;0.00;;;20.90;99.90;;;;;;5088874;28;20181;-70
2023/06/15 07:27:31;;;;;;;0.28;0.15;;;20.90;99.90;;;;;;5091707;28;20224;-70
2023/06/15 07:29:56;;;;;;;0.00;0.00;;;20.90;99.90;;;;;;5091568;28;20210;-70
2023/06/15 07:32:22;;;;;;;0.00;0.00;;;21.10;99.90;;;;;;5095308;28;20245;-71
2023/06/15 07:34:47;;;;;;;0.00;0.00;;;21.00;99.90;;;;;;5102637;28;20205;-69
2023/06/15 07:37:13;;;;;;;0.00;0.00;;;21.00;99.90;;;;;;5095560;28;20692;-71
2023/06/15 07:39:38;;;;;;;0.00;0.00;;;21.10;99.90;;;;;;5095311;28;20165;-70
2023/06/15 07:42:06;;;;;;;0.52;0.52;;;21.10;99.90;;;;;;5095544;28;20169;-72
2023/06/15 07:44:31;;;;;;;1.13;0.45;;;21.10;99.90;;;;;;5095570;28;20643;-71
2023/06/15 07:46:57;;;;;;;0.10;0.10;;;21.20;99.90;;;;;;5095679;28;20193;-71
2023/06/15 07:49:22;;;;;;;0.00;0.00;;;21.50;99.90;;;;;;5097619;28;20200;-70
2023/06/15 07:51:48;;;;;;;0.00;0.00;;;21.70;99.90;;;;;;5095659;28;20542;-70
2023/06/15 07:54:13;;;;;;;0.00;0.00;;;21.90;99.90;;;;;;5095648;28;20222;-70
2023/06/15 07:56:39;;;;;;;0.47;0.15;;;21.50;99.90;;;;;;5095135;28;20185;-70
2023/06/15 07:59:04;;;;;;;0.00;0.00;;;21.40;99.90;;;;;;5095322;28;20173;-71
2023/06/15 08:01:30;;;;;;;0.00;0.00;;;21.50;99.90;;;;;;5095796;28;20184;-70
2023/06/15 08:03:55;;;;;;;0.25;0.25;;;21.60;99.90;;;;;;5095491;28;20168;-72
2023/06/15 08:06:21;;;;;;;16.20;0.35;;;21.90;99.90;;;;;;5095011;28;20584;-71
2023/06/15 08:08:46;;;;;;;0.85;0.52;;;21.70;99.90;;;;;;5114768;28;20248;-69
2023/06/15 08:11:13;;;;;;;0.05;0.05;;;21.60;99.90;;;;;;5115513;27;20187;-71
2023/06/15 08:13:38;;;;;;;0.00;0.00;;;21.80;99.90;;;;;;5106356;27;20527;-70
2023/06/15 08:16:06;;;;;;;0.10;0.10;;;21.90;99.90;;;;;;5078300;28;20186;-71
2023/06/15 08:18:32;;;;;;;0.00;0.00;;;22.20;99.90;;;;;;5074433;28;20165;-70
2023/06/15 08:20:58;;;;;;;0.00;0.00;;;22.30;99.90;;;;;;5074302;28;20638;-69
2023/06/15 08:23:23;;;;;;;0.28;0.28;;;22.10;99.90;;;;;;5073218;28;20235;-70
2023/06/15 08:25:52;;;;;;;0.00;0.00;;;22.10;99.90;;;;;;5090216;28;20207;-70
2023/06/15 08:28:18;;;;;;;0.08;0.08;;;22.20;99.90;;;;;;5094289;28;20257;-70
2023/06/15 08:30:43;;;;;;;0.00;0.00;;;22.20;99.90;;;;;;5094641;28;20169;-70
2023/06/15 08:33:09;;;;;;;0.00;0.00;;;22.30;99.90;;;;;;5094333;28;20168;-70
2023/06/15 08:35:35;;;;;;;0.00;0.00;;;22.30;99.90;;;;;;5093777;28;20177;-70
2023/06/15 08:38:01;;;;;;;10.60;0.85;;;;;;;;;;5094546;28;20248;-70
2023/06/15 08:40:27;;;;;;;0.00;0.00;;;22.60;99.90;;;;;;5094532;28;20215;-70
2023/06/15 08:42:54;;;;;;;0.00;0.00;;;22.90;99.90;;;;;;5094453;28;20173;-70
2023/06/15 08:45:20;;;;;;;0.00;0.00;;;22.70;99.90;;;;;;5093711;28;20226;-70
2023/06/15 08:47:46;;;;;;;0.00;0.00;;;22.90;99.90;;;;;;5093924;28;20217;-70
2023/06/15 08:50:12;;;;;;;0.20;0.20;;;23.20;99.90;;;;;;5094056;28;20267;-70
2023/06/15 08:52:41;;;;;;;0.10;0.10;;;23.10;99.90;;;;;;5093658;28;20624;-71
2023/06/15 08:55:08;;;;;;;0.00;0.00;;;;;;;;;;5093488;28;20173;-71
2023/06/15 08:57:35;;;;;;;0.00;0.00;;;23.20;99.90;;;;;;5093608;28;20268;-71
2023/06/15 09:00:05;;;;;;;0.00;0.00;;;23.00;99.90;;;;;;5093754;28;20173;-71
2023/06/15 09:02:31;;;;;;;0.00;0.00;;;23.00;99.90;;;;;;5093597;28;20268;-71
2023/06/15 09:04:57;;;;;;;0.00;0.00;;;23.20;99.90;;;;;;5093141;28;20626;-71
2023/06/15 09:07:23;;;;;;;0.00;0.00;;;23.20;99.90;;;;;;5101537;28;20199;-71
2023/06/15 09:10:15;;;;;;;0.00;0.00;;;23.20;99.90;;;;;;5102534;28;20224;-71
2023/06/15 09:13:01;;;;;;;0.00;0.00;;;23.10;99.90;;;;;;5098292;28;20195;-70
2023/06/15 09:15:28;;;;;;;0.22;0.22;;;23.40;99.90;;;;;;5101319;28;20180;-70
2023/06/15 09:17:55;;;;;;;0.00;0.00;;;;;;;;;;5104663;28;20614;-72
2023/06/15 09:20:22;;;;;;;0.03;0.03;;;;;;;;;;5091597;28;20177;-71
2023/06/15 09:22:48;;;;;;;0.00;0.00;;;23.90;99.90;;;;;;5094808;28;20257;-70
2023/06/15 09:25:21;;;;;;;0.00;0.00;;;23.90;99.90;;;;;;5092015;28;20248;-71
2023/06/15 09:27:58;;;;;;;0.08;0.08;;;23.90;99.90;;;;;;5085483;28;20848;-71
2023/06/15 09:33:18;;;;;;;0.65;0.30;;;24.20;99.90;;;;;;5109550;27;20448;-71
2023/06/15 09:35:57;;;;;;;0.00;0.00;;;24.00;99.90;;;;;;5109211;28;20245;-72
2023/06/15 10:28:21;;;;;;;0.05;0.05;;;25.10;79.30;;;;;;5149317;27;20476;-72
2023/06/15 10:31:08;;;;;;;0.00;0.00;;;25.40;89.20;;;;;;5122907;28;20168;-72
2023/06/15 10:34:03;;;;;;;0.00;0.00;;;25.10;83.00;;;;;;5129964;28;20541;-71
2023/06/15 10:46:43;;;;;;;0.00;0.00;;;25.40;68.40;;;;;;5109873;27;21065;-71
2023/06/15 10:49:11;;;;;;;0.32;0.32;;;25.30;65.90;;;;;;5076621;28;20189;-72
